Scandia, Kansas
Current Conditions -  °F | °C
As of 11:55 AM on Tuesday 21 Oct 2014 (Local Time) from KCNK Reporting Station
Clear Clear  
Wind Chill: 72°   Ceiling: Unl
Heat Index: 72°   Visibility: 10mi
Dew Point: 55°   Wind: 8mph
Humidity: 55%   Direction: 150°SSE
Pressure: 30.1"   Gusts: NA
Location:  39.79°N, 97.78°W
Report Text: KCNK 211655Z AUTO 15007KT 130V190 10SM CLR 22/13 A3010 RMK AO2 SLP187 T02220128
Loading
Personal Weather Stations






























Interactive Weather Map
Tropical Storm Tracking
New forecast layout! Learn more

10-Day Weather Forecast

Advertisements
Track Severe Weather on mobile